createdAt,value
2018-09-25T00:01:42.946Z,3.27
2018-09-25T00:04:21.241Z,1.20
2018-09-25T00:06:59.922Z,1.07
2018-09-25T00:09:38.404Z,2.10
2018-09-25T00:12:17.600Z,1.53
2018-09-25T00:14:56.008Z,1.93
2018-09-25T00:17:34.494Z,8.80
2018-09-25T00:20:13.280Z,1.43
2018-09-25T00:22:51.700Z,1.07
2018-09-25T00:25:30.296Z,1.33
2018-09-25T00:28:09.254Z,2.10
2018-09-25T00:30:47.614Z,2.40
2018-09-25T00:33:26.155Z,1.17
2018-09-25T00:36:04.532Z,2.63
2018-09-25T00:38:47.239Z,1.80
2018-09-25T00:41:26.112Z,2.40
2018-09-25T00:44:05.315Z,1.10
2018-09-25T00:46:45.573Z,1.00
2018-09-25T00:49:24.726Z,0.90
2018-09-25T00:52:04.038Z,1.57
2018-09-25T00:54:42.665Z,1.00
2018-09-25T00:57:20.966Z,1.40
2018-09-25T00:59:59.511Z,1.10
2018-09-25T01:02:37.909Z,2.97
2018-09-25T01:05:16.270Z,2.03
2018-09-25T01:07:55.333Z,1.50
2018-09-25T01:10:34.710Z,0.97
2018-09-25T01:13:13.274Z,1.10
2018-09-25T01:15:52.325Z,1.93
2018-09-25T01:18:30.659Z,2.40
2018-09-25T01:21:09.730Z,1.17
2018-09-25T01:23:48.085Z,1.80
2018-09-25T01:26:26.575Z,2.50
2018-09-25T01:29:04.804Z,1.43
2018-09-25T01:31:43.210Z,2.13
2018-09-25T01:34:21.588Z,0.93
2018-09-25T01:37:00.156Z,1.87
2018-09-25T01:39:39.103Z,1.60
2018-09-25T01:42:17.632Z,0.90
2018-09-25T01:44:56.062Z,1.50
2018-09-25T01:47:34.448Z,1.30
2018-09-25T01:50:12.861Z,0.83
2018-09-25T01:52:51.254Z,0.80
2018-09-25T01:55:29.824Z,3.00
2018-09-25T01:58:08.173Z,0.80
2018-09-25T02:00:46.890Z,1.33
2018-09-25T02:03:25.207Z,3.00
2018-09-25T02:06:03.675Z,1.60
2018-09-25T02:08:42.074Z,1.10
2018-09-25T02:11:20.610Z,0.90
2018-09-25T02:13:59.030Z,1.87
2018-09-25T02:16:37.381Z,4.73
2018-09-25T02:19:15.808Z,5.70
2018-09-25T02:21:54.412Z,1.27
2018-09-25T02:24:34.108Z,1.83
2018-09-25T02:27:14.085Z,1.90
2018-09-25T02:29:53.767Z,1.20
2018-09-25T02:32:32.196Z,2.10
2018-09-25T02:35:11.126Z,1.10
2018-09-25T02:37:49.355Z,2.80
2018-09-25T02:40:28.414Z,1.00
2018-09-25T02:43:08.551Z,1.57
2018-09-25T02:45:46.980Z,2.20
2018-09-25T02:48:25.726Z,1.83
2018-09-25T02:51:04.284Z,1.30
2018-09-25T02:53:44.601Z,1.20
2018-09-25T02:56:23.612Z,2.73
2018-09-25T02:59:02.107Z,1.00
2018-09-25T03:01:41.185Z,1.30
2018-09-25T03:04:22.810Z,6.87
2018-09-25T03:07:01.173Z,1.83
2018-09-25T03:09:39.656Z,3.20
2018-09-25T03:12:22.507Z,1.00
2018-09-25T03:15:01.294Z,1.20
2018-09-25T03:17:39.970Z,1.87
2018-09-25T03:20:22.154Z,0.90
2018-09-25T03:23:00.968Z,0.80
2018-09-25T03:25:39.776Z,1.73
2018-09-25T03:28:19.224Z,0.87
2018-09-25T03:30:58.752Z,2.70
2018-09-25T03:33:39.119Z,1.00
2018-09-25T03:36:18.361Z,1.10
2018-09-25T03:38:57.362Z,3.33
2018-09-25T03:41:37.872Z,1.20
2018-09-25T03:44:19.075Z,1.67
2018-09-25T03:46:58.811Z,1.07
2018-09-25T03:49:38.403Z,1.53
2018-09-25T03:52:18.335Z,1.33
2018-09-25T03:54:57.904Z,2.13
2018-09-25T03:57:36.463Z,1.33
2018-09-25T04:00:14.997Z,0.80
2018-09-25T04:02:53.489Z,1.20
2018-09-25T04:05:31.825Z,1.60
2018-09-25T04:08:10.110Z,1.93
2018-09-25T04:10:48.514Z,1.57
2018-09-25T04:13:27.272Z,3.20
2018-09-25T04:16:05.510Z,1.40
2018-09-25T04:18:44.464Z,3.20
2018-09-25T04:21:23.039Z,2.10
2018-09-25T04:24:01.541Z,3.70
2018-09-25T04:26:40.754Z,1.17
2018-09-25T04:29:19.879Z,0.73
2018-09-25T04:31:58.586Z,1.17
2018-09-25T04:34:36.992Z,1.20
2018-09-25T04:37:15.834Z,1.00
2018-09-25T04:39:54.142Z,1.27
2018-09-25T04:42:32.833Z,1.83
2018-09-25T04:45:11.670Z,3.03
2018-09-25T04:47:50.408Z,1.00
2018-09-25T04:50:28.937Z,1.10
2018-09-25T04:53:07.270Z,7.00
2018-09-25T04:55:45.738Z,4.90
2018-09-25T04:58:24.512Z,1.77
2018-09-25T05:01:02.910Z,4.97
2018-09-25T05:03:41.204Z,4.23
2018-09-25T05:06:19.476Z,4.47
2018-09-25T05:08:57.812Z,5.63
2018-09-25T05:11:36.646Z,2.97
2018-09-25T05:14:15.726Z,7.50
2018-09-25T05:16:54.169Z,2.73
2018-09-25T05:19:32.768Z,2.80
2018-09-25T05:22:11.490Z,1.53
2018-09-25T05:24:50.407Z,4.97
2018-09-25T05:27:28.671Z,4.70
2018-09-25T05:30:07.207Z,1.70
2018-09-25T05:32:45.919Z,1.90
2018-09-25T05:35:24.314Z,4.37
2018-09-25T05:38:02.813Z,1.97
2018-09-25T05:40:46.290Z,1.67
2018-09-25T05:43:24.768Z,3.07
2018-09-25T05:48:52.838Z,4.27
2018-09-25T05:51:31.840Z,2.10
2018-09-25T05:54:14.090Z,3.43
2018-09-25T05:56:54.277Z,1.60
2018-09-25T05:59:34.529Z,3.03
2018-09-25T06:02:14.554Z,2.17
2018-09-25T06:04:53.785Z,2.90
2018-09-25T06:07:32.879Z,4.00
2018-09-25T06:10:16.610Z,3.87
2018-09-25T06:12:55.916Z,3.20
2018-09-25T06:15:34.886Z,1.37
2018-09-25T06:18:14.350Z,3.17
2018-09-25T06:20:53.977Z,2.37
2018-09-25T06:26:16.832Z,11.77
2018-09-25T06:28:55.374Z,7.57
2018-09-25T06:31:35.025Z,3.50
2018-09-25T06:34:15.793Z,2.77
2018-09-25T06:36:55.731Z,6.37
2018-09-25T06:39:36.552Z,5.00
2018-09-25T06:53:30.432Z,4.63
2018-09-25T06:56:10.446Z,3.27
2018-09-25T06:58:49.607Z,5.93
2018-09-25T07:01:28.941Z,5.43
2018-09-25T07:04:11.575Z,4.97
2018-09-25T07:06:54.550Z,10.30
2018-09-25T07:09:39.767Z,8.97
2018-09-25T07:12:19.477Z,2.50
2018-09-25T07:15:00.493Z,4.20
2018-09-25T07:17:40.510Z,3.20
2018-09-25T07:20:20.273Z,3.13
2018-09-25T07:23:00.019Z,3.97
2018-09-25T07:25:38.762Z,4.70
2018-09-25T07:28:18.919Z,7.87
2018-09-25T07:30:58.737Z,3.20
2018-09-25T07:33:40.054Z,3.80
2018-09-25T07:36:21.648Z,5.50
2018-09-25T07:39:04.089Z,4.33
2018-09-25T07:41:43.400Z,1.40
2018-09-25T07:44:24.449Z,1.77
2018-09-25T07:47:04.484Z,2.07
2018-09-25T07:49:47.146Z,1.77
2018-09-25T07:52:27.116Z,1.83
2018-09-25T07:55:06.968Z,0.90
2018-09-25T07:57:46.812Z,3.10
2018-09-25T08:00:28.618Z,4.37
2018-09-25T08:03:08.006Z,8.70
2018-09-25T08:05:48.578Z,3.13
2018-09-25T08:08:27.779Z,3.40
2018-09-25T08:11:06.562Z,4.37
2018-09-25T08:13:48.328Z,6.27
2018-09-25T08:16:27.628Z,1.37
2018-09-25T08:19:06.337Z,4.73
2018-09-25T08:21:47.894Z,4.00
2018-09-25T08:24:26.996Z,6.87
2018-09-25T08:27:06.643Z,3.63
2018-09-25T08:29:47.815Z,1.23
2018-09-25T08:32:26.824Z,3.97
2018-09-25T08:35:06.875Z,3.53
2018-09-25T08:37:45.273Z,8.27
2018-09-25T08:40:27.643Z,5.13
2018-09-25T08:43:07.304Z,2.57
2018-09-25T08:45:48.374Z,2.47
2018-09-25T08:48:28.013Z,3.13
2018-09-25T08:51:06.530Z,1.37
2018-09-25T08:53:45.601Z,2.37
2018-09-25T08:56:25.232Z,1.50
2018-09-25T08:59:06.048Z,3.30
2018-09-25T09:01:45.268Z,1.07
2018-09-25T09:04:26.563Z,1.13
2018-09-25T09:07:04.706Z,2.03
2018-09-25T09:13:07.891Z,1.97
2018-09-25T09:15:47.104Z,1.97
2018-09-25T09:18:32.178Z,6.00
2018-09-25T09:21:11.558Z,5.33
2018-09-25T09:23:50.703Z,1.73
2018-09-25T09:26:32.062Z,2.40
2018-09-25T09:29:10.265Z,2.63
2018-09-25T09:31:52.354Z,1.40
2018-09-25T09:34:31.699Z,1.63
2018-09-25T09:37:10.134Z,0.40
2018-09-25T09:39:50.059Z,0.77
2018-09-25T09:42:29.988Z,0.93
2018-09-25T09:45:08.460Z,1.27
2018-09-25T09:47:47.276Z,1.13
2018-09-25T09:50:27.333Z,1.37
2018-09-25T09:53:06.282Z,0.80
2018-09-25T09:55:48.591Z,2.50
2018-09-25T09:58:27.758Z,3.00
2018-09-25T10:01:06.059Z,2.27
2018-09-25T10:03:44.482Z,0.60
2018-09-25T10:06:23.678Z,1.57
2018-09-25T10:09:03.267Z,1.90
2018-09-25T10:11:42.725Z,0.80
2018-09-25T10:14:21.708Z,0.63
2018-09-25T10:17:00.492Z,1.30
2018-09-25T10:19:39.162Z,2.63
2018-09-25T10:22:18.948Z,0.50
2018-09-25T10:24:57.656Z,2.10
2018-09-25T10:27:37.362Z,1.43
2018-09-25T10:30:17.747Z,1.67
2018-09-25T10:32:56.419Z,4.23
2018-09-25T10:35:35.520Z,1.97
2018-09-25T10:38:14.354Z,6.23
2018-09-25T10:40:52.941Z,2.27
2018-09-25T10:43:32.106Z,4.03
2018-09-25T10:46:11.669Z,6.27
2018-09-25T10:48:51.973Z,6.93
2018-09-25T10:51:30.316Z,3.50
2018-09-25T10:54:11.047Z,3.37
2018-09-25T10:56:49.727Z,2.50
2018-09-25T10:59:28.096Z,3.63
2018-09-25T11:02:06.572Z,7.50
2018-09-25T11:04:45.755Z,4.47
2018-09-25T11:07:25.112Z,5.87
2018-09-25T11:10:04.155Z,3.03
2018-09-25T11:12:42.721Z,8.63
2018-09-25T11:15:21.370Z,2.77
2018-09-25T11:18:00.090Z,2.27
2018-09-25T11:20:38.819Z,1.03
2018-09-25T11:23:17.159Z,4.50
2018-09-25T11:25:55.757Z,5.23
2018-09-25T11:28:34.630Z,3.90
2018-09-25T11:31:12.954Z,8.13
2018-09-25T11:33:51.166Z,4.07
2018-09-25T11:36:29.376Z,8.87
2018-09-25T11:39:07.696Z,2.00
2018-09-25T11:41:46.393Z,1.37
2018-09-25T11:44:24.756Z,2.80
2018-09-25T11:47:02.998Z,2.57
2018-09-25T11:49:41.278Z,2.98
2018-09-25T11:52:19.642Z,3.73
2018-09-25T11:54:57.912Z,2.62
2018-09-25T11:57:36.674Z,5.03
2018-09-25T12:00:15.010Z,4.47
2018-09-25T12:02:53.619Z,1.15
2018-09-25T12:05:31.920Z,1.87
2018-09-25T12:08:10.534Z,3.25
2018-09-25T12:10:49.659Z,2.92
2018-09-25T12:13:28.142Z,3.52
2018-09-25T12:16:06.781Z,6.17
2018-09-25T12:18:45.732Z,5.90
2018-09-25T12:21:24.374Z,2.67
2018-09-25T12:24:02.874Z,2.67
2018-09-25T12:26:41.383Z,4.35
2018-09-25T12:29:19.865Z,0.90
2018-09-25T12:31:58.241Z,2.75
2018-09-25T12:34:36.620Z,4.42
2018-09-25T12:37:15.284Z,6.37
2018-09-25T12:39:53.647Z,5.92
2018-09-25T12:42:32.932Z,1.67
2018-09-25T12:45:12.036Z,6.80
2018-09-25T12:47:50.475Z,3.45
2018-09-25T12:50:29.151Z,4.12
2018-09-25T12:53:07.533Z,6.75
2018-09-25T12:55:46.936Z,4.20
2018-09-25T12:58:25.416Z,6.78
2018-09-25T13:01:03.935Z,5.20
2018-09-25T13:03:42.662Z,2.08
2018-09-25T13:06:21.865Z,2.98
2018-09-25T13:09:00.232Z,4.22
2018-09-25T13:11:38.631Z,3.87
2018-09-25T13:14:17.196Z,4.90
2018-09-25T13:16:55.972Z,4.08
2018-09-25T13:19:35.041Z,9.40
2018-09-25T13:22:14.013Z,3.65
2018-09-25T13:24:53.470Z,2.80
2018-09-25T13:27:31.718Z,5.60
2018-09-25T13:30:10.683Z,5.10
2018-09-25T13:32:48.895Z,3.95
2018-09-25T13:35:27.980Z,2.52
2018-09-25T13:38:06.548Z,3.52
2018-09-25T13:40:45.159Z,2.77
2018-09-25T13:43:23.412Z,7.25
2018-09-25T13:46:02.017Z,5.28
2018-09-25T13:48:40.617Z,2.15
2018-09-25T13:51:19.156Z,4.10
2018-09-25T13:53:57.552Z,2.22
2018-09-25T13:56:35.828Z,1.92
2018-09-25T13:59:16.127Z,12.98
2018-09-25T14:01:55.294Z,7.03
2018-09-25T14:04:33.810Z,4.00
2018-09-25T14:07:12.110Z,3.40
2018-09-25T14:09:50.657Z,3.47
2018-09-25T14:12:29.245Z,3.75
2018-09-25T14:15:08.972Z,5.15
2018-09-25T14:17:47.957Z,3.80
2018-09-25T14:20:26.948Z,4.35
2018-09-25T14:23:07.903Z,2.20
2018-09-25T14:25:46.759Z,6.42
2018-09-25T14:31:21.738Z,3.33
2018-09-25T14:34:00.519Z,8.05
2018-09-25T14:36:38.910Z,6.47
2018-09-25T14:39:17.402Z,9.38
2018-09-25T14:41:55.809Z,10.32
2018-09-25T14:44:34.309Z,6.45
2018-09-25T14:47:12.845Z,10.15
2018-09-25T14:49:51.576Z,8.20
2018-09-25T14:52:30.080Z,7.40
2018-09-25T14:55:08.672Z,11.68
2018-09-25T14:57:47.234Z,6.00
2018-09-25T15:00:25.697Z,6.97
2018-09-25T15:03:03.971Z,5.20
2018-09-25T15:05:42.423Z,8.57
2018-09-25T15:08:20.719Z,9.23
2018-09-25T15:10:59.374Z,4.87
2018-09-25T15:13:37.898Z,8.43
2018-09-25T15:16:16.158Z,4.00
2018-09-25T15:18:55.584Z,7.47
2018-09-25T15:21:34.296Z,4.03
2018-09-25T15:24:12.848Z,8.63
2018-09-25T15:26:51.346Z,9.33
2018-09-25T15:29:34.038Z,4.90
2018-09-25T15:32:12.783Z,10.80
2018-09-25T15:34:51.653Z,5.17
2018-09-25T15:37:30.217Z,10.17
2018-09-25T15:40:09.206Z,7.80
2018-09-25T15:42:47.688Z,4.60
2018-09-25T15:45:26.012Z,10.87
2018-09-25T15:48:04.544Z,8.33
2018-09-25T15:50:43.063Z,11.93
2018-09-25T15:53:21.521Z,7.93
2018-09-25T15:56:00.064Z,6.80
2018-09-25T15:58:38.989Z,7.47
2018-09-25T16:01:17.372Z,8.97
2018-09-25T16:03:56.619Z,6.43
2018-09-25T16:06:34.997Z,5.90
2018-09-25T16:09:14.026Z,4.70
2018-09-25T16:11:52.512Z,5.83
2018-09-25T16:14:30.933Z,5.63
2018-09-25T16:17:09.389Z,4.07
2018-09-25T16:19:47.829Z,7.33
2018-09-25T16:22:26.660Z,5.23
2018-09-25T16:25:05.420Z,8.03
2018-09-25T16:27:43.861Z,14.97
2018-09-25T16:30:22.553Z,10.07
2018-09-25T16:33:01.224Z,8.10
2018-09-25T16:35:39.865Z,8.37
2018-09-25T16:38:18.541Z,11.03
2018-09-25T16:40:56.997Z,9.23
2018-09-25T16:43:37.088Z,5.63
2018-09-25T16:46:15.431Z,6.27
2018-09-25T16:48:54.050Z,5.77
2018-09-25T16:51:32.564Z,7.30
2018-09-25T16:54:10.924Z,10.97
2018-09-25T16:56:49.264Z,7.77
2018-09-25T16:59:28.300Z,5.80
2018-09-25T17:02:07.673Z,5.07
2018-09-25T17:04:46.117Z,5.83
2018-09-25T17:07:24.867Z,9.53
2018-09-25T17:10:03.161Z,7.77
2018-09-25T17:12:41.412Z,5.30
2018-09-25T17:15:19.976Z,7.40
2018-09-25T17:17:58.419Z,7.30
2018-09-25T17:20:36.773Z,6.80
2018-09-25T17:23:15.099Z,7.63
2018-09-25T17:25:53.548Z,4.00
2018-09-25T17:28:31.888Z,5.47
2018-09-25T17:31:10.576Z,4.43
2018-09-25T17:33:48.920Z,10.73
2018-09-25T17:36:27.640Z,4.10
2018-09-25T17:39:06.846Z,8.23
2018-09-25T17:41:45.436Z,4.37
2018-09-25T17:44:24.006Z,2.13
2018-09-25T17:50:01.172Z,4.57
2018-09-25T17:52:40.844Z,3.43
2018-09-25T17:55:19.409Z,8.23
2018-09-25T17:57:57.988Z,3.53
2018-09-25T18:00:36.746Z,7.50
2018-09-25T18:03:15.639Z,7.63
2018-09-25T18:05:54.489Z,8.43
2018-09-25T18:08:34.012Z,5.23
2018-09-25T18:11:12.493Z,7.70
2018-09-25T18:13:50.883Z,5.83
2018-09-25T18:16:30.519Z,5.33
2018-09-25T18:19:09.024Z,4.40
2018-09-25T18:21:47.243Z,8.30
2018-09-25T18:24:27.652Z,5.37
2018-09-25T18:27:06.654Z,4.63
2018-09-25T18:29:45.084Z,3.83
2018-09-25T18:32:24.652Z,4.30
2018-09-25T18:35:03.871Z,8.97
2018-09-25T18:37:42.525Z,5.70
2018-09-25T18:40:20.713Z,10.73
2018-09-25T18:42:59.514Z,6.00
2018-09-25T18:45:40.421Z,8.37
2018-09-25T18:48:19.451Z,16.33
2018-09-25T18:50:58.768Z,7.30
2018-09-25T18:53:37.956Z,11.67
2018-09-25T18:56:16.382Z,8.20
2018-09-25T18:58:55.791Z,11.40
2018-09-25T19:01:34.297Z,10.17
2018-09-25T19:04:12.718Z,8.10
2018-09-25T19:06:53.005Z,9.43
2018-09-25T19:09:31.705Z,7.60
2018-09-25T19:12:10.462Z,9.50
2018-09-25T19:14:49.921Z,15.40
2018-09-25T19:17:29.932Z,8.07
2018-09-25T19:20:08.415Z,10.03
2018-09-25T19:22:47.356Z,12.90
2018-09-25T19:25:26.169Z,9.03
2018-09-25T19:28:04.682Z,6.50
2018-09-25T19:30:43.432Z,9.77
2018-09-25T19:33:21.835Z,5.53
2018-09-25T19:36:01.829Z,7.43
2018-09-25T19:38:40.770Z,7.43
2018-09-25T19:41:19.347Z,4.03
2018-09-25T19:43:57.670Z,11.60
2018-09-25T19:46:37.372Z,15.63
2018-09-25T19:49:17.386Z,6.50
2018-09-25T19:51:55.936Z,12.43
2018-09-25T19:54:35.349Z,4.73
2018-09-25T19:57:13.673Z,10.53
2018-09-25T19:59:56.770Z,8.77
2018-09-25T20:02:38.645Z,11.03
2018-09-25T20:05:23.804Z,10.43
2018-09-25T20:08:04.099Z,10.50
2018-09-25T20:10:43.781Z,9.87
2018-09-25T20:13:23.802Z,13.97
2018-09-25T20:16:09.719Z,10.23
2018-09-25T20:18:50.004Z,6.47
2018-09-25T20:21:33.669Z,5.73
2018-09-25T20:24:15.644Z,8.50
2018-09-25T20:26:55.937Z,12.90
2018-09-25T20:29:35.877Z,10.30
2018-09-25T20:32:14.884Z,8.93
2018-09-25T20:34:54.165Z,6.10
2018-09-25T20:37:32.567Z,9.77
2018-09-25T20:40:12.083Z,9.27
2018-09-25T20:42:52.203Z,7.63
2018-09-25T20:45:31.859Z,8.93
2018-09-25T20:48:11.090Z,7.30
2018-09-25T20:50:49.669Z,8.73
2018-09-25T20:53:28.273Z,9.47
2018-09-25T20:56:08.743Z,11.57
2018-09-25T20:58:48.085Z,8.30
2018-09-25T21:01:28.283Z,8.30
2018-09-25T21:04:06.667Z,9.63
2018-09-25T21:06:45.352Z,10.60
2018-09-25T21:09:23.835Z,10.37
2018-09-25T21:12:03.333Z,8.27
2018-09-25T21:14:42.306Z,6.53
2018-09-25T21:17:20.961Z,8.90
2018-09-25T21:19:59.291Z,7.53
2018-09-25T21:22:37.908Z,6.67
2018-09-25T21:25:16.463Z,8.50
2018-09-25T21:27:56.324Z,8.07
2018-09-25T21:30:35.743Z,10.80
2018-09-25T21:33:14.591Z,12.63
2018-09-25T21:35:52.882Z,9.10
2018-09-25T21:38:31.868Z,7.57
2018-09-25T21:41:10.429Z,14.40
2018-09-25T21:43:49.348Z,11.87
2018-09-25T21:46:28.802Z,7.40
2018-09-25T21:49:07.206Z,11.20
2018-09-25T21:51:45.904Z,8.53
2018-09-25T21:54:24.391Z,7.60
2018-09-25T21:57:02.785Z,8.77
2018-09-25T21:59:41.590Z,6.67
2018-09-25T22:02:28.122Z,13.73
2018-09-25T22:05:12.653Z,16.10
2018-09-25T22:07:52.280Z,11.83
2018-09-25T22:10:31.087Z,6.60
2018-09-25T22:13:09.735Z,8.63
2018-09-25T22:15:48.570Z,9.93
2018-09-25T22:18:27.269Z,7.63
2018-09-25T22:21:05.984Z,14.00
2018-09-25T22:23:44.582Z,6.00
2018-09-25T22:26:23.074Z,10.80
2018-09-25T22:29:01.977Z,8.43
2018-09-25T22:31:40.410Z,8.97
2018-09-25T22:34:18.830Z,11.37
2018-09-25T22:36:57.284Z,7.37
2018-09-25T22:39:35.846Z,9.43
2018-09-25T22:42:14.956Z,9.33
2018-09-25T22:44:53.478Z,13.77
2018-09-25T22:47:32.214Z,6.47
2018-09-25T22:50:10.754Z,13.10
2018-09-25T22:52:49.175Z,9.60
2018-09-25T22:55:29.004Z,10.07
2018-09-25T22:58:07.949Z,11.43
2018-09-25T23:00:46.673Z,13.90
2018-09-25T23:03:25.282Z,21.27
2018-09-25T23:06:04.079Z,11.00
2018-09-25T23:08:42.524Z,9.57
2018-09-25T23:11:20.943Z,15.13
2018-09-25T23:13:59.433Z,13.00
2018-09-25T23:16:38.585Z,9.70
2018-09-25T23:19:17.917Z,16.10
2018-09-25T23:21:56.442Z,12.93
2018-09-25T23:24:35.026Z,15.83
2018-09-25T23:27:13.680Z,8.53
2018-09-25T23:29:52.543Z,13.47
2018-09-25T23:32:31.351Z,11.87
2018-09-25T23:35:10.027Z,5.90
2018-09-25T23:37:48.657Z,8.83
2018-09-25T23:42:34.691Z,7.57
2018-09-25T23:47:18.706Z,11.40
2018-09-25T23:50:14.901Z,9.40
2018-09-25T23:52:53.790Z,12.23
2018-09-25T23:55:41.496Z,12.50
2018-09-25T23:58:20.054Z,10.17
